Time;durP1;ratioP1;P1;durP2;ratioP2;P2;SDS_P1;SDS_P2;PMS_P1;PMS_P2;Temp;Humidity;BMP_temperature;BMP_pressure;BME280_temperature;BME280_humidity;BME280_pressure;Samples;Min_cycle;Max_cycle;Signal;HPM_P1;HPM_P2
2022/05/28 00:01:55;;;;;;;5.60;1.10;;;;;;;;;;5032730;28;20036;-65
2022/05/28 00:04:21;;;;;;;6.32;1.13;;;;;;;;;;5039257;28;20032;-65
2022/05/28 00:06:47;;;;;;;5.13;0.90;;;;;;;;;;5051315;28;20025;-65
2022/05/28 00:09:12;;;;;;;3.45;1.00;;;;;;;;;;5051203;28;20021;-65
2022/05/28 00:11:41;;;;;;;4.13;0.93;;;;;;;;;;5051335;28;20386;-65
2022/05/28 00:14:08;;;;;;;5.28;1.05;;;;;;;;;;5051217;28;20025;-65
2022/05/28 00:16:36;;;;;;;5.50;1.17;;;;;;;;;;5051075;28;20028;-65
2022/05/28 00:19:01;;;;;;;4.97;1.20;;;;;;;;;;5050832;28;20024;-65
2022/05/28 00:21:27;;;;;;;4.90;1.35;;;;;;;;;;5051058;28;20390;-65
2022/05/28 00:23:52;;;;;;;4.55;1.00;;;;;;;;;;5050909;28;20017;-65
2022/05/28 00:26:19;;;;;;;7.50;1.23;;;;;;;;;;5050855;28;20032;-66
2022/05/28 00:28:44;;;;;;;4.13;1.90;;;;;;;;;;5050989;28;20024;-65
2022/05/28 00:31:10;;;;;;;6.18;1.10;;;;;;;;;;5050987;28;20399;-65
2022/05/28 00:33:36;;;;;;;6.68;1.38;;;;;;;;;;5050877;28;20061;-65
2022/05/28 00:36:04;;;;;;;6.85;1.20;;;;;;;;;;5052164;28;20111;-66
2022/05/28 00:38:30;;;;;;;1.75;0.80;;;;;;;;;;5053269;28;20041;-65
2022/05/28 00:40:58;;;;;;;7.30;1.40;;;;;;;;;;5056395;28;20436;-64
2022/05/28 00:43:24;;;;;;;2.15;1.02;;;;;;;;;;5056496;28;20035;-64
2022/05/28 00:45:57;;;;;;;6.13;1.27;;;;;;;;;;5056559;28;20021;-63
2022/05/28 00:48:29;;;;;;;6.28;1.20;;;;;;;;;;5055367;28;20028;-65
2022/05/28 00:50:57;;;;;;;6.00;1.17;;;;;;;;;;5056447;28;20052;-63
2022/05/28 00:53:23;;;;;;;8.30;1.50;;;;;;;;;;5056400;28;20454;-63
2022/05/28 00:55:48;;;;;;;7.55;1.40;;;;;;;;;;5055974;28;20039;-66
2022/05/28 00:58:14;;;;;;;6.82;1.67;;;;;;;;;;5056334;28;20096;-65
2022/05/28 01:00:42;;;;;;;7.20;1.23;;;;;;;;;;5056039;28;20025;-66
2022/05/28 01:03:33;;;;;;;8.80;1.38;;;;;;;;;;5056103;28;20032;-63
2022/05/28 01:06:05;;;;;;;7.05;1.15;;;;;;;;;;5056064;28;20104;-64
2022/05/28 01:08:56;;;;;;;6.95;1.63;;;;;;;;;;5056062;28;20029;-65
2022/05/28 01:11:37;;;;;;;5.32;1.38;;;;;;;;;;5055909;28;20036;-64
2022/05/28 01:14:20;;;;;;;6.57;1.33;;;;;;;;;;5055851;28;20029;-64
2022/05/28 01:16:55;;;;;;;5.70;1.20;;;;;;;;;;5055795;28;20111;-64
2022/05/28 01:19:39;;;;;;;5.35;1.55;;;;;;;;;;5055581;28;20493;-65
2022/05/28 01:22:16;;;;;;;7.55;1.30;;;;;;;;;;5055569;28;20478;-64
2022/05/28 01:25:06;;;;;;;7.15;1.40;;;;;;;;;;5055679;28;20040;-64
2022/05/28 01:27:35;;;;;;;5.93;1.30;;;;;;;;;;5055703;28;20044;-65
2022/05/28 01:30:06;;;;;;;5.75;1.52;;;;;;;;;;5055820;28;20033;-64
2022/05/28 01:32:34;;;;;;;7.10;1.77;;;;;;;;;;5055614;28;20051;-63
2022/05/28 01:35:03;;;;;;;9.60;1.33;;;;;;;;;;5055642;28;20087;-64
2022/05/28 01:37:30;;;;;;;9.38;1.45;;;;;;;;;;5055430;28;20025;-64
2022/05/28 01:39:56;;;;;;;6.32;1.23;;;;;;;;;;5055191;28;20470;-64
2022/05/28 01:42:22;;;;;;;10.50;1.38;;;;;;;;;;5055173;28;20021;-65
2022/05/28 01:44:49;;;;;;;7.78;1.70;;;;;;;;;;5055497;28;20524;-64
2022/05/28 01:47:16;;;;;;;10.95;1.45;;;;;;;;;;5055161;28;20096;-64
2022/05/28 01:49:43;;;;;;;5.78;1.52;;;;;;;;;;5054880;28;20053;-63
2022/05/28 01:52:11;;;;;;;5.90;1.35;;;;;;;;;;5054848;28;20032;-64
2022/05/28 01:54:43;;;;;;;5.70;1.50;;;;;;;;;;5054892;28;20067;-66
2022/05/28 01:57:10;;;;;;;11.43;2.08;;;;;;;;;;5055119;28;20467;-65
2022/05/28 01:59:36;;;;;;;5.45;1.52;;;;;;;;;;5055170;28;20505;-64
2022/05/28 02:02:05;;;;;;;5.60;1.52;;;;;;;;;;5054882;28;20348;-65
2022/05/28 02:04:32;;;;;;;9.90;1.95;;;;;;;;;;5055031;28;20167;-65
2022/05/28 02:06:57;;;;;;;9.18;2.50;;;;;;;;;;5054908;28;20024;-63
2022/05/28 02:09:42;;;;;;;8.05;1.83;;;;;;;;;;5054769;28;20036;-64
2022/05/28 02:12:08;;;;;;;6.35;1.48;;;;;;;;;;5054889;28;20032;-64
2022/05/28 02:14:51;;;;;;;7.40;1.60;;;;;;;;;;5054826;28;20025;-64
2022/05/28 02:17:23;;;;;;;4.28;1.80;;;;;;;;;;5054435;28;20025;-64
2022/05/28 02:20:02;;;;;;;6.60;1.58;;;;;;;;;;5054431;28;20064;-64
2022/05/28 02:22:33;;;;;;;6.35;1.40;;;;;;;;;;5054101;28;20144;-66
2022/05/28 02:25:06;;;;;;;8.95;1.75;;;;;;;;;;5054654;28;20021;-64
2022/05/28 02:27:34;;;;;;;7.93;2.00;;;;;;;;;;5054577;28;20017;-66
2022/05/28 02:30:01;;;;;;;5.50;1.40;;;;;;;;;;5054504;28;20166;-63
2022/05/28 02:32:26;;;;;;;8.48;1.67;;;;;;;;;;5054534;28;20017;-64
2022/05/28 02:34:52;;;;;;;7.15;1.48;;;;;;;;;;5054779;28;20505;-66
2022/05/28 02:37:20;;;;;;;7.65;1.52;;;;;;;;;;5054115;28;20021;-64
2022/05/28 02:39:46;;;;;;;6.82;1.20;;;;;;;;;;5054159;28;20035;-64
2022/05/28 02:42:12;;;;;;;4.90;1.38;;;;;;;;;;5054130;28;20463;-64
2022/05/28 02:44:37;;;;;;;12.07;1.65;;;;;;;;;;5054098;28;20025;-64
2022/05/28 02:47:03;;;;;;;5.50;1.20;;;;;;;;;;5054079;28;20021;-66
2022/05/28 02:49:29;;;;;;;10.13;1.30;;;;;;;;;;5054177;28;20048;-65
2022/05/28 02:51:55;;;;;;;3.83;1.45;;;;;;;;;;5054012;28;20025;-65
2022/05/28 02:54:21;;;;;;;6.93;1.23;;;;;;;;;;5054057;28;20374;-64
2022/05/28 02:56:47;;;;;;;6.00;1.80;;;;;;;;;;5053904;28;20463;-64
2022/05/28 02:59:13;;;;;;;5.43;1.20;;;;;;;;;;5053887;28;20032;-64
2022/05/28 03:01:38;;;;;;;7.45;1.98;;;;;;;;;;5053228;28;20021;-64
2022/05/28 03:04:06;;;;;;;8.02;1.70;;;;;;;;;;5053479;28;20021;-64
2022/05/28 03:06:32;;;;;;;7.10;1.10;;;;;;;;;;5053588;28;20040;-65
2022/05/28 03:08:57;;;;;;;5.88;1.10;;;;;;;;;;5053778;28;20047;-65
2022/05/28 03:11:23;;;;;;;6.63;1.73;;;;;;;;;;5053787;28;20104;-65
2022/05/28 03:13:49;;;;;;;9.98;1.88;;;;;;;;;;5053704;28;20029;-65
2022/05/28 03:16:15;;;;;;;10.07;1.50;;;;;;;;;;5053779;28;20053;-65
2022/05/28 03:18:40;;;;;;;5.80;1.50;;;;;;;;;;5053193;28;20032;-63
2022/05/28 03:21:07;;;;;;;12.75;2.08;;;;;;;;;;5053371;28;20462;-64
2022/05/28 03:23:33;;;;;;;7.80;2.40;;;;;;;;;;5053333;28;20049;-64
2022/05/28 03:26:10;;;;;;;4.20;1.40;;;;;;;;;;5053366;28;20017;-64
2022/05/28 03:28:35;;;;;;;4.50;0.98;;;;;;;;;;5053534;28;20083;-64
2022/05/28 03:31:01;;;;;;;4.60;1.10;;;;;;;;;;5053351;28;20029;-64
2022/05/28 03:33:26;;;;;;;7.40;1.75;;;;;;;;;;5053320;28;20025;-64
2022/05/28 03:35:52;;;;;;;7.20;1.50;;;;;;;;;;5052942;28;20028;-64
2022/05/28 03:38:17;;;;;;;7.63;1.48;;;;;;;;;;5053222;28;20033;-65
2022/05/28 03:40:43;;;;;;;8.13;1.55;;;;;;;;;;5053237;28;20057;-65
2022/05/28 03:43:09;;;;;;;6.57;1.40;;;;;;;;;;5052971;28;20029;-65
2022/05/28 03:45:35;;;;;;;4.78;1.10;;;;;;;;;;5053033;28;20070;-65
2022/05/28 03:48:04;;;;;;;9.70;1.52;;;;;;;;;;5053150;28;20052;-65
2022/05/28 03:50:30;;;;;;;3.55;1.10;;;;;;;;;;5051513;28;20033;-65
2022/05/28 03:52:55;;;;;;;4.38;1.60;;;;;;;;;;5052886;28;20351;-65
2022/05/28 03:55:21;;;;;;;4.82;1.00;;;;;;;;;;5052836;28;20029;-65
2022/05/28 03:57:47;;;;;;;4.80;1.30;;;;;;;;;;5052846;28;20017;-65
2022/05/28 04:00:13;;;;;;;4.40;1.00;;;;;;;;;;5052961;28;20060;-65
2022/05/28 04:02:39;;;;;;;4.18;0.98;;;;;;;;;;5052580;28;20021;-63
2022/05/28 04:05:04;;;;;;;2.60;0.90;;;;;;;;;;5052618;28;20032;-64
2022/05/28 04:07:30;;;;;;;10.95;2.58;;;;;;;;;;5052867;28;20031;-65
2022/05/28 04:09:55;;;;;;;5.20;0.80;;;;;;;;;;5051338;28;20051;-65
2022/05/28 04:12:21;;;;;;;4.47;1.15;;;;;;;;;;5052781;28;20047;-64
2022/05/28 04:14:48;;;;;;;6.32;1.25;;;;;;;;;;5052376;28;20374;-64
2022/05/28 04:17:13;;;;;;;4.15;0.90;;;;;;;;;;5051038;28;20099;-65
2022/05/28 04:19:39;;;;;;;4.07;1.15;;;;;;;;;;5052218;28;20062;-65
2022/05/28 04:22:05;;;;;;;3.83;1.25;;;;;;;;;;5052226;28;20052;-65
2022/05/28 04:24:32;;;;;;;5.72;1.02;;;;;;;;;;5052411;28;20051;-64
2022/05/28 04:26:58;;;;;;;4.80;1.05;;;;;;;;;;5052425;28;20601;-64
2022/05/28 04:29:24;;;;;;;5.55;1.35;;;;;;;;;;5052587;28;20453;-64
2022/05/28 04:31:49;;;;;;;5.85;1.23;;;;;;;;;;5052527;28;20067;-64
2022/05/28 04:34:15;;;;;;;4.45;1.00;;;;;;;;;;5052319;28;20425;-64
2022/05/28 04:36:40;;;;;;;3.60;1.13;;;;;;;;;;5052339;28;20035;-64
2022/05/28 04:39:06;;;;;;;5.00;1.25;;;;;;;;;;5052457;28;20029;-63
2022/05/28 04:41:31;;;;;;;5.55;1.17;;;;;;;;;;5052509;28;20488;-64
2022/05/28 04:43:57;;;;;;;3.22;1.05;;;;;;;;;;5052294;28;20029;-65
2022/05/28 04:46:22;;;;;;;5.05;1.30;;;;;;;;;;5052214;28;20053;-65
2022/05/28 04:48:48;;;;;;;3.17;0.90;;;;;;;;;;5052127;28;20108;-65
2022/05/28 04:51:13;;;;;;;4.72;1.10;;;;;;;;;;5052252;28;20040;-65
2022/05/28 04:53:39;;;;;;;4.00;0.90;;;;;;;;;;5052194;28;20040;-65
2022/05/28 04:56:05;;;;;;;4.88;1.00;;;;;;;;;;5052238;28;20044;-65
2022/05/28 04:58:30;;;;;;;5.22;1.20;;;;;;;;;;5052374;28;20032;-65
2022/05/28 05:00:56;;;;;;;5.70;1.02;;;;;;;;;;5052217;28;20069;-65
2022/05/28 05:03:22;;;;;;;6.20;1.73;;;;;;;;;;5052034;28;20041;-64
2022/05/28 05:05:47;;;;;;;2.90;1.10;;;;;;;;;;5052162;28;20075;-64
2022/05/28 05:08:13;;;;;;;6.65;1.20;;;;;;;;;;5052225;28;20429;-64
2022/05/28 05:10:39;;;;;;;4.18;1.00;;;;;;;;;;5052123;28;20417;-66
2022/05/28 05:13:05;;;;;;;4.88;1.23;;;;;;;;;;5052264;28;20021;-65
2022/05/28 05:15:31;;;;;;;3.30;0.90;;;;;;;;;;5052113;28;20108;-64
2022/05/28 05:17:57;;;;;;;3.60;1.10;;;;;;;;;;5051451;28;20061;-63
2022/05/28 05:20:22;;;;;;;5.60;1.50;;;;;;;;;;5051951;28;20035;-64
2022/05/28 05:22:48;;;;;;;4.88;1.10;;;;;;;;;;5051887;28;20124;-64
2022/05/28 05:25:14;;;;;;;3.90;1.20;;;;;;;;;;5052452;28;20029;-65
2022/05/28 05:27:42;;;;;;;2.70;1.00;;;;;;;;;;5055747;28;20362;-64
2022/05/28 05:30:08;;;;;;;3.30;0.93;;;;;;;;;;5055718;28;20485;-65
2022/05/28 05:32:33;;;;;;;3.95;0.90;;;;;;;;;;5055455;28;20033;-66
2022/05/28 05:34:59;;;;;;;2.38;0.93;;;;;;;;;;5055451;28;20036;-63
2022/05/28 05:37:24;;;;;;;7.80;1.20;;;;;;;;;;5055656;28;20048;-64
2022/05/28 05:39:50;;;;;;;3.83;0.93;;;;;;;;;;5055327;28;20330;-62
2022/05/28 05:42:15;;;;;;;4.72;1.10;;;;;;;;;;5055256;28;20154;-64
2022/05/28 05:44:41;;;;;;;5.03;0.88;;;;;;;;;;5055190;28;20414;-65
2022/05/28 05:47:07;;;;;;;5.15;1.02;;;;;;;;;;5055185;28;20032;-66
2022/05/28 05:49:33;;;;;;;5.07;1.20;;;;;;;;;;5055519;28;20425;-63
2022/05/28 05:51:59;;;;;;;2.97;1.02;;;;;;;;;;5055361;28;20040;-63
2022/05/28 05:54:25;;;;;;;3.35;1.02;;;;;;;;;;5055055;28;20036;-63
2022/05/28 05:56:52;;;;;;;4.07;0.80;;;;;;;;;;5055117;28;20481;-63
2022/05/28 05:59:17;;;;;;;5.05;1.00;;;;;;;;;;5055171;28;20052;-65
2022/05/28 06:01:43;;;;;;;6.38;1.35;;;;;;;;;;5054779;28;20048;-64
2022/05/28 06:04:08;;;;;;;4.10;1.10;;;;;;;;;;5054963;28;20064;-65
2022/05/28 06:06:34;;;;;;;2.58;0.75;;;;;;;;;;5054900;28;20064;-65
2022/05/28 06:08:59;;;;;;;6.35;1.20;;;;;;;;;;5055030;28;20078;-65
2022/05/28 06:11:25;;;;;;;6.18;1.20;;;;;;;;;;5055125;28;20459;-65
2022/05/28 06:13:51;;;;;;;4.93;0.98;;;;;;;;;;5053609;28;20036;-65
2022/05/28 06:16:17;;;;;;;5.72;1.02;;;;;;;;;;5054632;28;20029;-65
2022/05/28 06:18:43;;;;;;;4.53;0.85;;;;;;;;;;5054395;28;20032;-65
2022/05/28 06:21:09;;;;;;;4.90;1.20;;;;;;;;;;5054660;28;20025;-67
2022/05/28 06:23:35;;;;;;;4.30;1.00;;;;;;;;;;5054605;28;20045;-64
2022/05/28 06:26:03;;;;;;;5.35;1.33;;;;;;;;;;5054941;28;20470;-64
2022/05/28 06:28:28;;;;;;;6.30;0.90;;;;;;;;;;5054559;28;20119;-64
2022/05/28 06:30:59;;;;;;;9.10;1.40;;;;;;;;;;5054244;28;20063;-64
2022/05/28 06:33:24;;;;;;;;;;;;;;;;;;5054939;28;20025;-64
2022/05/28 06:35:57;;;;;;;7.22;1.40;;;;;;;;;;5054262;28;19912;-63
2022/05/28 06:38:24;;;;;;;3.75;0.90;;;;;;;;;;5054326;28;20036;-64
2022/05/28 06:40:50;;;;;;;4.18;1.00;;;;;;;;;;5054292;28;20442;-64
2022/05/28 06:43:16;;;;;;;5.30;1.33;;;;;;;;;;5053985;28;20068;-63
2022/05/28 06:45:41;;;;;;;1.88;0.88;;;;;;;;;;5054180;28;20047;-63
2022/05/28 06:48:07;;;;;;;4.00;1.00;;;;;;;;;;5054231;28;20453;-64
2022/05/28 06:53:17;;;;;;;5.28;1.10;;;;;;;;;;5054395;28;20108;-63
2022/05/28 06:55:43;;;;;;;5.80;1.10;;;;;;;;;;5054017;28;20060;-63
2022/05/28 06:58:08;;;;;;;4.82;1.15;;;;;;;;;;5053706;28;20029;-63
2022/05/28 07:00:35;;;;;;;5.88;1.90;;;;;;;;;;5054019;28;20029;-63
2022/05/28 07:03:00;;;;;;;5.60;1.48;;;;;;;;;;5053786;28;20028;-64
2022/05/28 07:05:28;;;;;;;5.43;1.10;;;;;;;;;;5053781;28;20036;-66
2022/05/28 07:07:54;;;;;;;3.92;1.25;;;;;;;;;;5053836;28;20025;-64
2022/05/28 07:10:20;;;;;;;4.50;1.00;;;;;;;;;;5053733;28;20441;-64
2022/05/28 07:12:45;;;;;;;4.57;1.08;;;;;;;;;;5053595;28;20032;-64
2022/05/28 07:15:13;;;;;;;5.72;1.40;;;;;;;;;;5053627;28;20527;-65
2022/05/28 07:17:39;;;;;;;4.28;1.00;;;;;;;;;;5053368;28;20037;-64
2022/05/28 07:20:05;;;;;;;7.22;1.10;;;;;;;;;;5053428;28;20033;-65
2022/05/28 07:22:31;;;;;;;6.63;1.10;;;;;;;;;;5053192;28;20371;-65
2022/05/28 07:24:56;;;;;;;6.70;1.40;;;;;;;;;;5053375;28;20029;-64
2022/05/28 07:27:22;;;;;;;6.55;0.98;;;;;;;;;;5053239;28;20029;-65
2022/05/28 07:29:47;;;;;;;6.30;1.17;;;;;;;;;;5053530;28;20482;-65
2022/05/28 07:32:13;;;;;;;3.45;1.30;;;;;;;;;;5052189;28;20028;-65
2022/05/28 07:34:38;;;;;;;5.28;0.90;;;;;;;;;;5053313;28;20057;-64
2022/05/28 07:37:04;;;;;;;2.75;1.00;;;;;;;;;;5051666;28;20025;-65
2022/05/28 07:39:30;;;;;;;5.45;1.05;;;;;;;;;;5049550;28;20029;-65
2022/05/28 07:41:55;;;;;;;2.97;1.00;;;;;;;;;;5051466;28;20029;-65
2022/05/28 07:44:21;;;;;;;7.22;1.40;;;;;;;;;;5052993;28;20029;-64
2022/05/28 07:46:47;;;;;;;4.80;0.85;;;;;;;;;;5053212;28;20363;-65
2022/05/28 07:49:13;;;;;;;4.53;1.20;;;;;;;;;;5052496;28;20098;-64
2022/05/28 07:51:38;;;;;;;8.57;1.20;;;;;;;;;;5053029;28;20530;-65
2022/05/28 07:54:05;;;;;;;7.72;1.60;;;;;;;;;;5053068;28;20021;-65
2022/05/28 07:56:31;;;;;;;3.83;1.20;;;;;;;;;;5052565;28;20053;-65
2022/05/28 07:58:58;;;;;;;5.68;1.50;;;;;;;;;;5052805;28;20053;-64
2022/05/28 08:01:26;;;;;;;6.30;1.30;;;;;;;;;;5052709;28;20433;-65
2022/05/28 08:03:53;;;;;;;4.38;1.20;;;;;;;;;;5052807;28;20028;-65
2022/05/28 08:06:19;;;;;;;6.78;1.52;;;;;;;;;;5052696;28;20083;-64
2022/05/28 08:08:45;;;;;;;6.00;1.50;;;;;;;;;;5052953;28;20025;-65
2022/05/28 08:11:11;;;;;;;5.05;1.45;;;;;;;;;;5052596;28;20021;-64
2022/05/28 08:13:37;;;;;;;6.55;1.17;;;;;;;;;;5052833;28;20027;-65
2022/05/28 08:16:03;;;;;;;3.63;1.10;;;;;;;;;;5052823;28;20029;-65
2022/05/28 08:18:28;;;;;;;6.85;1.60;;;;;;;;;;5052264;28;20094;-65
2022/05/28 08:23:41;;;;;;;4.32;1.20;;;;;;;;;;5052557;28;20528;-64
2022/05/28 08:26:08;;;;;;;4.63;1.20;;;;;;;;;;5052212;28;20017;-64
2022/05/28 08:28:36;;;;;;;8.43;1.83;;;;;;;;;;5052530;28;20025;-64
2022/05/28 08:31:01;;;;;;;7.25;1.60;;;;;;;;;;5052492;28;20531;-64
2022/05/28 08:33:27;;;;;;;6.75;1.30;;;;;;;;;;5052632;28;20033;-64
2022/05/28 08:35:53;;;;;;;5.88;1.35;;;;;;;;;;5052565;28;20143;-66
2022/05/28 08:38:21;;;;;;;6.57;1.38;;;;;;;;;;5052652;28;20025;-65
2022/05/28 08:40:55;;;;;;;2.13;1.00;;;;;;;;;;5052360;28;20017;-65
2022/05/28 08:43:22;;;;;;;6.70;1.17;;;;;;;;;;5052306;28;20108;-64
2022/05/28 08:45:50;;;;;;;5.55;2.03;;;;;;;;;;5052410;28;20021;-63
2022/05/28 08:48:26;;;;;;;4.30;1.27;;;;;;;;;;5052395;28;20111;-66
2022/05/28 08:51:04;;;;;;;5.78;1.30;;;;;;;;;;5052586;28;20029;-64
2022/05/28 08:53:35;;;;;;;5.35;1.30;;;;;;;;;;5052312;28;20071;-64
2022/05/28 08:56:01;;;;;;;4.53;1.02;;;;;;;;;;5052110;28;20037;-65
2022/05/28 08:58:28;;;;;;;4.18;1.30;;;;;;;;;;5052276;28;20116;-64
2022/05/28 09:01:13;;;;;;;3.05;0.98;;;;;;;;;;5055507;28;20029;-64
2022/05/28 09:03:49;;;;;;;4.28;1.20;;;;;;;;;;5056040;28;20116;-64
2022/05/28 09:06:20;;;;;;;4.45;1.30;;;;;;;;;;5054193;28;20363;-65
2022/05/28 09:08:51;;;;;;;5.97;1.42;;;;;;;;;;5055392;28;20115;-65
2022/05/28 09:11:29;;;;;;;4.50;0.95;;;;;;;;;;5053070;28;20103;-64
2022/05/28 09:13:55;;;;;;;6.18;1.20;;;;;;;;;;5055516;28;20016;-64
2022/05/28 09:16:28;;;;;;;5.25;0.98;;;;;;;;;;5055486;28;20407;-64
2022/05/28 09:18:58;;;;;;;5.22;1.48;;;;;;;;;;5055102;28;20024;-64
2022/05/28 09:21:23;;;;;;;8.20;1.60;;;;;;;;;;5055254;28;20075;-65
2022/05/28 09:24:02;;;;;;;5.25;0.80;;;;;;;;;;5055024;28;20490;-64
2022/05/28 09:26:37;;;;;;;4.97;1.67;;;;;;;;;;5053666;28;20437;-64
2022/05/28 09:29:30;;;;;;;7.05;1.17;;;;;;;;;;5053396;28;20116;-65
2022/05/28 09:32:11;;;;;;;5.90;1.50;;;;;;;;;;5051754;28;20053;-65
2022/05/28 09:34:39;;;;;;;5.05;1.35;;;;;;;;;;5054424;28;20040;-65
2022/05/28 09:37:20;;;;;;;6.47;1.38;;;;;;;;;;5052540;28;20021;-66
2022/05/28 09:39:51;;;;;;;5.43;1.70;;;;;;;;;;5052630;28;20032;-66
2022/05/28 09:42:28;;;;;;;5.72;1.50;;;;;;;;;;5055002;28;20013;-65
2022/05/28 09:45:00;;;;;;;9.77;2.53;;;;;;;;;;5053527;28;20501;-65
2022/05/28 09:47:25;;;;;;;7.65;2.95;;;;;;;;;;5052517;28;20478;-65
2022/05/28 09:49:55;;;;;;;5.75;1.67;;;;;;;;;;5054855;28;20119;-65
2022/05/28 09:52:27;;;;;;;4.47;1.50;;;;;;;;;;5054918;28;20023;-65
2022/05/28 09:55:12;;;;;;;4.38;1.15;;;;;;;;;;5055397;28;20025;-65
2022/05/28 09:57:51;;;;;;;4.38;1.15;;;;;;;;;;5055403;28;20068;-66
2022/05/28 10:00:21;;;;;;;5.15;1.58;;;;;;;;;;5055315;28;20044;-65
2022/05/28 10:05:53;;;;;;;5.95;1.38;;;;;;;;;;5055576;28;20169;-64
2022/05/28 10:08:18;;;;;;;7.45;1.42;;;;;;;;;;5054990;28;20031;-65
2022/05/28 10:10:54;;;;;;;6.18;1.70;;;;;;;;;;5050314;28;20458;-65
2022/05/28 10:13:23;;;;;;;10.13;2.08;;;;;;;;;;5053581;28;20478;-66
2022/05/28 10:15:54;;;;;;;5.20;1.65;;;;;;;;;;5054960;28;20027;-66
2022/05/28 10:18:25;;;;;;;;;;;;;;;;;;5055047;28;20033;-63
2022/05/28 10:21:17;;;;;;;4.22;1.52;;;;;;;;;;5054734;28;19920;-65
2022/05/28 10:23:49;;;;;;;8.30;1.73;;;;;;;;;;5054428;28;20045;-65
2022/05/28 10:26:21;;;;;;;9.07;1.70;;;;;;;;;;5054837;28;20028;-65
2022/05/28 10:28:50;;;;;;;6.50;1.73;;;;;;;;;;5054278;28;20064;-65
2022/05/28 10:31:24;;;;;;;5.75;1.65;;;;;;;;;;5054031;28;20063;-65
2022/05/28 10:33:49;;;;;;;8.75;1.90;;;;;;;;;;5054479;28;20022;-65
2022/05/28 10:36:18;;;;;;;10.10;2.35;;;;;;;;;;5054262;28;20163;-65
2022/05/28 10:38:44;;;;;;;7.25;2.17;;;;;;;;;;5054459;28;20118;-65
2022/05/28 10:41:25;;;;;;;6.30;1.80;;;;;;;;;;5054245;28;20025;-65
2022/05/28 10:43:51;;;;;;;5.63;2.50;;;;;;;;;;5054327;28;20058;-65
2022/05/28 10:46:46;;;;;;;6.22;2.40;;;;;;;;;;5054188;28;20174;-65
2022/05/28 10:49:33;;;;;;;6.47;2.00;;;;;;;;;;5048414;28;20421;-65
2022/05/28 10:52:13;;;;;;;7.75;1.95;;;;;;;;;;5054055;28;20539;-65
2022/05/28 10:54:57;;;;;;;;;;;;;;;;;;5054313;28;20137;-65
2022/05/28 10:57:30;;;;;;;3.67;1.25;;;;;;;;;;5053683;28;19912;-65
2022/05/28 10:59:59;;;;;;;5.18;1.50;;;;;;;;;;5054014;28;20104;-66
2022/05/28 11:03:01;;;;;;;5.57;1.75;;;;;;;;;;5053926;28;20025;-65
2022/05/28 11:06:14;;;;;;;7.60;1.70;;;;;;;;;;5053255;28;20035;-65
2022/05/28 11:08:46;;;;;;;9.07;2.03;;;;;;;;;;5011907;28;20486;-65
2022/05/28 11:11:24;;;;;;;7.57;1.60;;;;;;;;;;5012037;28;20479;-65
2022/05/28 11:14:17;;;;;;;9.93;1.70;;;;;;;;;;5012028;28;20188;-65
2022/05/28 11:17:04;;;;;;;10.95;2.22;;;;;;;;;;5011915;28;20089;-66
2022/05/28 11:19:48;;;;;;;7.00;1.67;;;;;;;;;;5011279;28;20041;-66
2022/05/28 11:22:29;;;;;;;6.15;1.73;;;;;;;;;;5011543;28;20053;-66
2022/05/28 11:25:05;;;;;;;4.50;1.48;;;;;;;;;;5011389;28;20038;-65
2022/05/28 11:27:58;;;;;;;6.15;1.48;;;;;;;;;;5011707;28;20062;-66
2022/05/28 11:30:31;;;;;;;6.32;1.80;;;;;;;;;;5011939;28;20061;-66
2022/05/28 11:33:05;;;;;;;5.55;1.25;;;;;;;;;;5011811;28;20116;-63
2022/05/28 11:36:11;;;;;;;4.32;1.20;;;;;;;;;;5011240;28;20471;-63
2022/05/28 11:38:41;;;;;;;16.02;3.65;;;;;;;;;;4968741;28;20850;-63
2022/05/28 11:41:13;;;;;;;5.75;1.83;;;;;;;;;;4972580;28;20511;-66
2022/05/28 11:44:10;;;;;;;12.40;2.95;;;;;;;;;;4973027;28;20420;-69
2022/05/28 11:46:52;;;;;;;8.02;2.75;;;;;;;;;;4991517;28;20128;-67
2022/05/28 11:52:55;;;;;;;6.80;1.70;;;;;;;;;;4991572;28;20053;-67
2022/05/28 11:55:23;;;;;;;9.30;1.75;;;;;;;;;;4991601;28;20034;-66
2022/05/28 11:58:02;;;;;;;8.88;2.03;;;;;;;;;;4987410;28;20408;-66
2022/05/28 12:00:34;;;;;;;6.38;1.73;;;;;;;;;;4982486;28;20042;-67
2022/05/28 12:03:09;;;;;;;4.72;1.48;;;;;;;;;;4979462;28;20048;-67
2022/05/28 12:05:48;;;;;;;8.00;1.95;;;;;;;;;;4972128;28;20039;-66
2022/05/28 12:08:26;;;;;;;13.60;2.28;;;;;;;;;;4972074;28;20540;-67
2022/05/28 12:11:15;;;;;;;8.88;1.70;;;;;;;;;;4973765;28;20590;-67
2022/05/28 12:13:41;;;;;;;9.68;1.58;;;;;;;;;;4978253;28;20070;-67
2022/05/28 12:16:37;;;;;;;5.72;1.17;;;;;;;;;;4991440;28;20435;-67
2022/05/28 12:19:06;;;;;;;8.02;1.50;;;;;;;;;;4971349;28;20141;-68
2022/05/28 12:21:40;;;;;;;8.60;1.73;;;;;;;;;;4971944;28;20436;-65
2022/05/28 12:24:14;;;;;;;8.88;1.52;;;;;;;;;;4955693;28;20480;-66
2022/05/28 12:26:57;;;;;;;8.23;1.90;;;;;;;;;;4971895;28;20061;-67
2022/05/28 12:29:38;;;;;;;6.72;1.33;;;;;;;;;;4971901;28;20034;-67
2022/05/28 12:32:19;;;;;;;10.48;1.67;;;;;;;;;;4952615;28;20054;-67
2022/05/28 12:35:07;;;;;;;4.78;1.10;;;;;;;;;;4952441;29;20175;-66
2022/05/28 12:37:35;;;;;;;8.00;1.77;;;;;;;;;;4969808;28;20070;-66
2022/05/28 12:40:28;;;;;;;8.38;1.67;;;;;;;;;;4971808;28;20042;-66
2022/05/28 12:42:53;;;;;;;8.88;2.00;;;;;;;;;;4971851;28;20043;-68
2022/05/28 12:45:40;;;;;;;7.43;1.63;;;;;;;;;;4971772;28;20621;-68
2022/05/28 12:48:20;;;;;;;7.38;1.65;;;;;;;;;;4971600;28;20037;-66
2022/05/28 12:51:14;;;;;;;11.90;2.13;;;;;;;;;;4971831;28;20034;-67
2022/05/28 12:53:59;;;;;;;7.68;1.67;;;;;;;;;;4970250;28;20639;-66
2022/05/28 12:56:34;;;;;;;10.10;1.73;;;;;;;;;;5018277;28;20386;-67
2022/05/28 12:59:24;;;;;;;6.78;2.10;;;;;;;;;;5032525;28;20061;-66
2022/05/28 13:02:19;;;;;;;7.97;1.77;;;;;;;;;;5042255;28;20545;-67
2022/05/28 13:05:29;;;;;;;4.85;1.55;;;;;;;;;;5064152;28;20044;-68
2022/05/28 13:07:58;;;;;;;5.35;1.35;;;;;;;;;;5030066;28;20087;-67
2022/05/28 13:10:27;;;;;;;8.07;2.22;;;;;;;;;;5030181;28;20438;-66
2022/05/28 13:13:30;;;;;;;7.05;1.83;;;;;;;;;;5030290;28;20030;-66
2022/05/28 13:16:04;;;;;;;10.82;1.85;;;;;;;;;;5029897;28;20049;-66
2022/05/28 13:18:42;;;;;;;4.13;1.40;;;;;;;;;;5023173;28;20502;-65
2022/05/28 13:21:32;;;;;;;8.98;1.77;;;;;;;;;;5030283;28;20075;-67
2022/05/28 13:24:35;;;;;;;5.03;1.98;;;;;;;;;;5030176;28;20131;-67
2022/05/28 13:27:22;;;;;;;9.30;2.35;;;;;;;;;;5030125;28;20065;-67
2022/05/28 13:30:29;;;;;;;11.25;2.28;;;;;;;;;;5029885;28;20049;-67
2022/05/28 13:33:07;;;;;;;7.15;1.63;;;;;;;;;;5013262;28;20041;-67
2022/05/28 13:35:43;;;;;;;7.30;2.00;;;;;;;;;;5029951;28;20037;-65
2022/05/28 13:38:10;;;;;;;7.70;1.80;;;;;;;;;;5030080;28;20025;-67
2022/05/28 13:40:40;;;;;;;10.02;1.92;;;;;;;;;;5029488;28;20052;-67
2022/05/28 13:43:08;;;;;;;6.03;1.42;;;;;;;;;;5032032;28;20022;-66
2022/05/28 13:45:36;;;;;;;7.40;1.50;;;;;;;;;;5031821;28;20029;-67
2022/05/28 13:48:12;;;;;;;6.82;1.63;;;;;;;;;;5034974;28;20029;-67
2022/05/28 13:50:41;;;;;;;5.72;1.30;;;;;;;;;;5035584;28;20025;-68
2022/05/28 13:53:08;;;;;;;5.95;1.30;;;;;;;;;;5035409;28;20026;-67
2022/05/28 13:55:40;;;;;;;7.82;1.83;;;;;;;;;;5035532;28;20138;-67
2022/05/28 13:58:22;;;;;;;8.23;2.00;;;;;;;;;;5039052;28;20020;-67
2022/05/28 14:00:54;;;;;;;4.32;1.23;;;;;;;;;;5048992;28;20035;-67
2022/05/28 14:03:35;;;;;;;7.93;1.67;;;;;;;;;;5039429;28;20025;-66
2022/05/28 14:06:03;;;;;;;5.47;1.40;;;;;;;;;;5033939;28;20030;-67
2022/05/28 14:08:37;;;;;;;9.35;1.60;;;;;;;;;;5035152;28;20079;-68
2022/05/28 14:11:17;;;;;;;7.65;1.83;;;;;;;;;;5035148;28;20435;-67
2022/05/28 14:13:49;;;;;;;4.82;1.35;;;;;;;;;;5034716;28;20025;-64
2022/05/28 14:16:38;;;;;;;13.88;3.78;;;;;;;;;;5035208;28;20443;-67
2022/05/28 14:19:06;;;;;;;9.48;2.10;;;;;;;;;;5041209;28;20041;-66
2022/05/28 14:21:38;;;;;;;7.60;1.30;;;;;;;;;;5054725;28;20778;-67
2022/05/28 14:24:17;;;;;;;5.38;1.52;;;;;;;;;;5054848;28;20033;-66
2022/05/28 14:26:47;;;;;;;9.80;1.65;;;;;;;;;;5054522;28;20049;-66
2022/05/28 14:29:14;;;;;;;6.57;1.88;;;;;;;;;;5054561;28;20025;-67
2022/05/28 14:31:40;;;;;;;6.22;1.58;;;;;;;;;;5054757;28;20028;-67
2022/05/28 14:34:09;;;;;;;4.65;1.30;;;;;;;;;;5054651;28;20025;-66
2022/05/28 14:36:37;;;;;;;6.53;1.45;;;;;;;;;;5054525;28;20037;-66
2022/05/28 14:39:11;;;;;;;5.70;1.48;;;;;;;;;;5054477;28;20028;-67
2022/05/28 14:41:42;;;;;;;4.82;1.77;;;;;;;;;;5054540;28;20036;-67
2022/05/28 14:44:13;;;;;;;8.85;1.45;;;;;;;;;;5054135;28;20462;-69
2022/05/28 14:46:40;;;;;;;5.25;1.42;;;;;;;;;;5054355;28;20326;-67
2022/05/28 14:49:16;;;;;;;7.10;1.88;;;;;;;;;;5054310;28;20024;-67
2022/05/28 14:51:42;;;;;;;8.90;1.77;;;;;;;;;;5054343;28;20037;-68
2022/05/28 14:54:32;;;;;;;5.50;1.13;;;;;;;;;;5054278;28;20399;-68
2022/05/28 14:56:59;;;;;;;8.05;1.60;;;;;;;;;;5051358;28;20048;-63
2022/05/28 14:59:42;;;;;;;7.63;1.50;;;;;;;;;;5047121;28;20025;-67
2022/05/28 15:02:10;;;;;;;8.23;1.75;;;;;;;;;;5034264;28;20021;-68
2022/05/28 15:04:36;;;;;;;6.05;1.33;;;;;;;;;;5033990;28;20048;-68
2022/05/28 15:07:06;;;;;;;6.07;1.60;;;;;;;;;;5034038;28;20022;-66
2022/05/28 15:09:45;;;;;;;7.28;2.30;;;;;;;;;;5034249;28;20394;-64
2022/05/28 15:12:15;;;;;;;7.18;1.95;;;;;;;;;;5033833;28;20088;-66
2022/05/28 15:14:42;;;;;;;8.65;1.63;;;;;;;;;;5033822;28;20033;-66
2022/05/28 15:17:07;;;;;;;6.50;1.40;;;;;;;;;;5033743;28;20021;-66
2022/05/28 15:19:33;;;;;;;8.50;1.42;;;;;;;;;;5053727;28;20127;-66